Aviation Digital Data Service (ADDS)

Output produced by METARs form (2154 UTC 19 February 2018)
found at http://www.aviationweather.gov/adds/metars/
 
GABS 192130Z 34004KT 8000 NSC 29/07 Q1010 NOSIG
TAF COR GABS 191900Z 1919/2024 22006KT 8000 NSC 
     TEMPO 2010/2016 28010KT
       
TAF GAGO 191700Z 1918/2018 14010KT 5000 DU NSC 
     TEMPO 2010/2016 22008KT 
     BECMG 2016/2018 35008KT
       
GABS 192130Z 34004KT 8000 NSC 29/07 Q1010 NOSIG
TAF COR GABS 191900Z 1919/2024 22006KT 8000 NSC 
     TEMPO 2010/2016 28010KT
       
TAF GAGO 191700Z 1918/2018 14010KT 5000 DU NSC 
     TEMPO 2010/2016 22008KT 
     BECMG 2016/2018 35008KT
       
GAMB 192100Z 00000KT 8000 NSC 31/18 Q1007
GANR 192100Z 36004KT CAVOK 29/06 Q1011
GAMB 192100Z 00000KT 8000 NSC 31/18 Q1007
GANR 192100Z 36004KT CAVOK 29/06 Q1011